createdAt,value
2019-04-21T00:01:41.243Z,74.00
2019-04-21T00:04:20.721Z,74.60
2019-04-21T00:06:55.266Z,73.70
2019-04-21T00:09:53.410Z,75.50
2019-04-21T00:12:15.459Z,77.70
2019-04-21T00:14:39.553Z,76.90
2019-04-21T00:17:05.356Z,78.00
2019-04-21T00:19:30.639Z,77.60
2019-04-21T00:22:09.950Z,77.80
2019-04-21T00:24:41.451Z,77.80
2019-04-21T00:27:15.560Z,77.20
2019-04-21T00:29:49.792Z,78.20
2019-04-21T00:32:13.561Z,78.50
2019-04-21T00:34:30.175Z,79.00
2019-04-21T00:37:09.427Z,79.40
2019-04-21T00:39:58.758Z,81.00
2019-04-21T00:42:18.411Z,81.00
2019-04-21T00:44:38.869Z,80.40
2019-04-21T00:47:13.956Z,80.40
2019-04-21T00:49:53.897Z,80.10
2019-04-21T00:52:43.045Z,80.20
2019-04-21T00:55:07.667Z,80.60
2019-04-21T00:57:35.699Z,79.60
2019-04-21T01:00:00.904Z,79.10
2019-04-21T01:02:35.021Z,78.70
2019-04-21T01:04:59.799Z,77.80
2019-04-21T01:07:26.537Z,77.40
2019-04-21T01:09:48.907Z,77.10
2019-04-21T01:12:31.507Z,76.80
2019-04-21T01:15:04.744Z,76.90
2019-04-21T01:17:28.770Z,76.40
2019-04-21T01:19:55.729Z,77.00
2019-04-21T01:22:09.494Z,77.10
2019-04-21T01:24:43.043Z,76.30
2019-04-21T01:27:21.106Z,76.20
2019-04-21T01:29:59.833Z,76.50
2019-04-21T01:32:31.481Z,77.60
2019-04-21T01:34:59.359Z,78.00
2019-04-21T01:37:38.523Z,79.30
2019-04-21T01:40:02.623Z,80.10
2019-04-21T01:42:32.808Z,79.60
2019-04-21T01:45:02.334Z,79.30
2019-04-21T01:47:25.016Z,78.70
2019-04-21T01:49:50.135Z,79.00
2019-04-21T01:52:38.261Z,79.20
2019-04-21T01:55:10.839Z,79.40
2019-04-21T01:57:52.798Z,80.20
2019-04-21T02:00:29.930Z,80.50
2019-04-21T02:03:10.729Z,80.40
2019-04-21T02:05:37.453Z,80.50
2019-04-21T02:07:54.832Z,80.50
2019-04-21T02:10:34.248Z,80.50
2019-04-21T02:13:01.661Z,80.50
2019-04-21T02:15:54.422Z,81.20
2019-04-21T02:17:59.488Z,81.90
2019-04-21T02:20:24.405Z,82.10
2019-04-21T02:25:50.912Z,82.20
2019-04-21T02:28:03.706Z,82.00
2019-04-21T02:30:47.468Z,81.40
2019-04-21T02:33:23.314Z,81.20
2019-04-21T02:38:23.698Z,81.80
2019-04-21T02:40:57.939Z,82.00
2019-04-21T02:43:39.559Z,84.10
2019-04-21T02:46:12.453Z,82.80
2019-04-21T02:48:40.768Z,82.20
2019-04-21T02:50:57.482Z,82.30
2019-04-21T02:56:14.482Z,82.20
2019-04-21T03:01:23.734Z,81.80
2019-04-21T03:04:00.619Z,82.30
2019-04-21T03:06:53.126Z,82.40
2019-04-21T03:09:18.565Z,83.70
2019-04-21T03:11:48.287Z,83.00
2019-04-21T03:14:37.388Z,83.60
2019-04-21T03:16:47.037Z,83.30
2019-04-21T03:19:28.935Z,83.40
2019-04-21T03:21:57.552Z,85.20
2019-04-21T03:24:18.508Z,84.90
2019-04-21T03:27:01.367Z,84.70
2019-04-21T03:29:28.291Z,84.40
2019-04-21T03:32:14.382Z,85.30
2019-04-21T03:34:41.737Z,85.60
2019-04-21T03:42:02.008Z,86.20
2019-04-21T03:44:22.989Z,86.10
2019-04-21T03:46:57.956Z,85.60
2019-04-21T03:49:32.093Z,85.00
2019-04-21T03:54:25.270Z,84.50
2019-04-21T03:57:10.996Z,84.90
2019-04-21T03:59:18.860Z,85.40
2019-04-21T04:04:47.552Z,84.60
2019-04-21T04:07:33.796Z,85.40
2019-04-21T04:10:03.552Z,85.80
2019-04-21T04:12:18.984Z,85.90
2019-04-21T04:17:16.797Z,86.80
2019-04-21T04:25:03.492Z,87.20
2019-04-21T04:27:58.058Z,86.90
2019-04-21T04:29:59.443Z,86.90
2019-04-21T04:32:23.240Z,87.00
2019-04-21T04:34:59.546Z,86.80
2019-04-21T04:40:13.673Z,85.20
2019-04-21T04:57:46.480Z,83.00
2019-04-21T05:00:14.485Z,82.70
2019-04-21T05:02:33.860Z,82.20
2019-04-21T05:05:19.449Z,81.20
2019-04-21T05:07:43.017Z,80.50
2019-04-21T05:10:17.292Z,80.50
2019-04-21T05:12:29.604Z,80.90
2019-04-21T05:15:09.134Z,81.50
2019-04-21T05:17:41.498Z,80.60
2019-04-21T05:20:08.598Z,80.20
2019-04-21T05:24:54.347Z,79.40
2019-04-21T05:27:30.764Z,78.80
2019-04-21T05:30:16.894Z,78.20
2019-04-21T05:32:48.766Z,79.50
2019-04-21T05:35:16.864Z,79.20
2019-04-21T05:37:47.617Z,78.90
2019-04-21T05:40:23.282Z,79.10
2019-04-21T05:42:55.718Z,77.10
2019-04-21T05:48:11.617Z,74.20
2019-04-21T05:50:34.940Z,74.10
2019-04-21T05:53:00.130Z,73.30
2019-04-21T05:55:58.649Z,73.10
2019-04-21T06:01:07.762Z,72.50
2019-04-21T06:03:10.111Z,72.10
2019-04-21T06:05:47.317Z,71.90
2019-04-21T06:08:13.205Z,71.80
2019-04-21T06:10:41.917Z,70.50
2019-04-21T06:13:38.197Z,70.70
2019-04-21T06:16:05.842Z,69.70
2019-04-21T06:18:35.367Z,69.70
2019-04-21T06:21:01.290Z,68.50
2019-04-21T06:23:30.104Z,67.90
2019-04-21T06:28:38.149Z,67.10
2019-04-21T06:31:14.605Z,66.50
2019-04-21T06:33:35.607Z,66.70
2019-04-21T06:39:01.743Z,65.10
2019-04-21T06:41:27.254Z,64.70
2019-04-21T06:43:56.339Z,64.10
2019-04-21T06:46:25.565Z,62.60
2019-04-21T06:48:55.524Z,61.40
2019-04-21T06:51:25.517Z,62.00
2019-04-21T06:53:59.773Z,60.60
2019-04-21T06:56:21.785Z,60.70
2019-04-21T06:58:51.786Z,60.50
2019-04-21T07:01:24.150Z,59.80
2019-04-21T07:04:02.056Z,59.50
2019-04-21T07:06:26.365Z,59.10
2019-04-21T07:09:02.754Z,58.60
2019-04-21T07:11:21.796Z,57.30
2019-04-21T07:13:54.727Z,57.20
2019-04-21T07:16:28.487Z,56.30
2019-04-21T07:19:03.959Z,55.50
2019-04-21T07:21:21.931Z,56.10
2019-04-21T07:24:03.132Z,57.90
2019-04-21T07:26:25.516Z,57.30
2019-04-21T07:29:04.556Z,57.30
2019-04-21T07:31:25.363Z,56.70
2019-04-21T07:34:00.237Z,56.10
2019-04-21T07:36:36.426Z,55.20
2019-04-21T07:38:49.786Z,54.00
2019-04-21T07:41:20.026Z,52.50
2019-04-21T07:43:55.675Z,53.20
2019-04-21T07:46:25.419Z,54.50
2019-04-21T07:49:11.391Z,54.20
2019-04-21T07:51:42.240Z,53.80
2019-04-21T07:54:23.287Z,53.30
2019-04-21T07:56:25.529Z,53.60
2019-04-21T07:59:31.528Z,53.50
2019-04-21T08:01:37.020Z,51.80
2019-04-21T08:04:34.859Z,50.60
2019-04-21T08:06:41.475Z,52.30
2019-04-21T08:09:08.995Z,52.40
2019-04-21T08:11:35.544Z,51.50
2019-04-21T08:14:06.937Z,51.60
2019-04-21T08:16:49.876Z,50.60
2019-04-21T08:19:12.906Z,50.90
2019-04-21T08:21:43.234Z,48.60
2019-04-21T08:24:07.711Z,47.00
2019-04-21T08:26:44.618Z,47.50
2019-04-21T08:29:20.298Z,47.00
2019-04-21T08:31:50.013Z,47.00
2019-04-21T08:34:17.771Z,46.70
2019-04-21T08:36:41.837Z,46.40
2019-04-21T08:39:12.741Z,46.40
2019-04-21T08:41:48.430Z,47.10
2019-04-21T08:44:11.482Z,46.10
2019-04-21T08:46:49.140Z,44.50
2019-04-21T08:49:17.328Z,44.80
2019-04-21T08:51:48.512Z,46.80
2019-04-21T08:54:17.096Z,46.40
2019-04-21T08:57:04.055Z,48.20
2019-04-21T08:59:50.705Z,47.20
2019-04-21T09:02:23.330Z,46.50
2019-04-21T09:04:53.528Z,46.70
2019-04-21T09:07:28.760Z,45.80
2019-04-21T09:09:54.707Z,45.00
2019-04-21T09:12:21.227Z,44.00
2019-04-21T09:14:57.548Z,42.70
2019-04-21T09:17:15.362Z,43.20
2019-04-21T09:19:56.450Z,45.00
2019-04-21T09:22:24.431Z,46.20
2019-04-21T09:24:51.665Z,42.90
2019-04-21T09:27:23.232Z,43.50
2019-04-21T09:29:39.308Z,42.60
2019-04-21T09:32:13.588Z,41.70
2019-04-21T09:34:41.524Z,42.50
2019-04-21T09:37:19.155Z,42.40
2019-04-21T09:39:43.311Z,43.30
2019-04-21T09:42:06.810Z,40.30
2019-04-21T09:44:40.138Z,38.00
2019-04-21T09:47:07.417Z,35.40
2019-04-21T09:49:37.591Z,32.70
2019-04-21T09:52:13.733Z,31.00
2019-04-21T09:54:48.221Z,32.30
2019-04-21T09:57:14.506Z,32.90
2019-04-21T09:59:40.666Z,32.60
2019-04-21T10:02:14.256Z,31.80
2019-04-21T10:04:38.018Z,31.80
2019-04-21T10:07:06.870Z,31.70
2019-04-21T10:09:35.639Z,31.50
2019-04-21T10:12:05.269Z,31.10
2019-04-21T10:14:33.868Z,32.00
2019-04-21T10:17:21.733Z,33.10
2019-04-21T10:19:50.646Z,33.00
2019-04-21T10:22:19.298Z,33.40
2019-04-21T10:24:48.820Z,32.70
2019-04-21T10:27:17.449Z,32.60
2019-04-21T10:29:47.191Z,32.30
2019-04-21T10:32:18.661Z,33.20
2019-04-21T10:34:47.526Z,33.90
2019-04-21T10:37:16.700Z,34.90
2019-04-21T10:39:45.437Z,34.90
2019-04-21T10:42:15.394Z,35.50
2019-04-21T10:44:45.120Z,34.20
2019-04-21T10:47:14.497Z,37.40
2019-04-21T10:49:44.588Z,37.60
2019-04-21T10:52:15.174Z,38.80
2019-04-21T10:55:06.797Z,37.20
2019-04-21T10:57:16.736Z,36.60
2019-04-21T10:59:48.826Z,35.60
2019-04-21T11:02:21.150Z,34.60
2019-04-21T11:04:51.039Z,35.20
2019-04-21T11:07:52.939Z,35.40
2019-04-21T11:10:08.063Z,35.20
2019-04-21T11:12:39.097Z,35.90
2019-04-21T11:15:07.449Z,35.60
2019-04-21T11:17:36.477Z,35.90
2019-04-21T11:20:06.684Z,35.20
2019-04-21T11:22:35.728Z,34.80
2019-04-21T11:25:09.137Z,34.20
2019-04-21T11:27:37.689Z,32.90
2019-04-21T11:30:07.538Z,33.80
2019-04-21T11:32:37.090Z,34.10
2019-04-21T11:35:05.527Z,34.40
2019-04-21T11:37:34.719Z,35.10
2019-04-21T11:40:10.518Z,35.40
2019-04-21T11:42:36.070Z,34.10
2019-04-21T11:45:06.621Z,35.20
2019-04-21T11:47:40.652Z,35.20
2019-04-21T11:50:10.807Z,34.40
2019-04-21T11:52:40.793Z,34.60
2019-04-21T11:55:11.003Z,33.50
2019-04-21T11:57:44.651Z,33.10
2019-04-21T12:00:11.389Z,32.90
2019-04-21T12:02:40.068Z,31.40
2019-04-21T12:05:11.617Z,31.10
2019-04-21T12:07:40.935Z,31.30
2019-04-21T12:10:09.584Z,29.80
2019-04-21T12:12:41.305Z,29.30
2019-04-21T12:15:12.342Z,28.60
2019-04-21T12:17:41.706Z,28.90
2019-04-21T12:20:10.757Z,28.60
2019-04-21T12:22:43.307Z,28.20
2019-04-21T12:25:13.868Z,27.80
2019-04-21T12:27:43.755Z,28.50
2019-04-21T12:30:13.771Z,28.70
2019-04-21T12:33:00.119Z,29.00
2019-04-21T12:35:29.786Z,29.30
2019-04-21T12:37:58.697Z,27.10
2019-04-21T12:40:28.356Z,27.50
2019-04-21T12:42:57.220Z,26.60
2019-04-21T12:45:26.109Z,26.20
2019-04-21T12:47:55.736Z,25.00
2019-04-21T12:50:25.842Z,24.30
2019-04-21T12:52:55.859Z,24.00
2019-04-21T12:55:30.717Z,23.40
2019-04-21T12:57:55.174Z,23.20
2019-04-21T13:00:24.802Z,23.10
2019-04-21T13:02:54.036Z,23.20
2019-04-21T13:05:22.686Z,23.20
2019-04-21T13:07:51.260Z,22.50
2019-04-21T13:10:20.362Z,22.30
2019-04-21T13:12:49.974Z,21.50
2019-04-21T13:15:19.884Z,21.20
2019-04-21T13:17:48.580Z,23.00
2019-04-21T13:20:17.229Z,22.20
2019-04-21T13:22:46.114Z,22.20
2019-04-21T13:25:14.108Z,22.10
2019-04-21T13:27:43.134Z,22.30
2019-04-21T13:30:12.647Z,23.20
2019-04-21T13:32:42.903Z,22.50
2019-04-21T13:35:12.916Z,22.20
2019-04-21T13:37:41.673Z,21.40
2019-04-21T13:40:34.200Z,20.90
2019-04-21T13:42:55.037Z,21.80
2019-04-21T13:45:19.346Z,21.20
2019-04-21T13:47:48.528Z,20.70
2019-04-21T13:50:17.447Z,20.30
2019-04-21T13:52:45.243Z,20.50
2019-04-21T13:55:14.025Z,20.90
2019-04-21T13:57:44.222Z,21.50
2019-04-21T14:00:15.138Z,20.80
2019-04-21T14:02:44.755Z,21.50
2019-04-21T14:05:15.661Z,20.40
2019-04-21T14:07:46.016Z,20.30
2019-04-21T14:10:16.071Z,20.10
2019-04-21T14:12:46.711Z,21.00
2019-04-21T14:15:15.689Z,20.70
2019-04-21T14:17:46.698Z,21.60
2019-04-21T14:20:15.736Z,21.10
2019-04-21T14:22:44.341Z,20.90
2019-04-21T14:25:15.182Z,21.50
2019-04-21T14:27:45.705Z,22.30
2019-04-21T14:30:14.693Z,22.40
2019-04-21T14:32:44.302Z,23.00
2019-04-21T14:35:14.698Z,22.40
2019-04-21T14:37:45.020Z,22.60
2019-04-21T14:40:20.672Z,23.40
2019-04-21T14:42:44.948Z,24.10
2019-04-21T14:45:16.842Z,24.80
2019-04-21T14:47:48.236Z,24.70
2019-04-21T14:50:18.705Z,23.80
2019-04-21T14:52:48.867Z,24.70
2019-04-21T14:55:18.988Z,22.70
2019-04-21T14:57:47.492Z,21.80
2019-04-21T15:00:18.999Z,22.10
2019-04-21T15:02:47.689Z,21.70
2019-04-21T15:05:17.494Z,21.60
2019-04-21T15:07:46.177Z,20.50
2019-04-21T15:10:19.996Z,19.70
2019-04-21T15:12:45.642Z,20.10
2019-04-21T15:15:15.975Z,19.30
2019-04-21T15:17:46.184Z,19.50
2019-04-21T15:20:17.290Z,20.50
2019-04-21T15:22:46.245Z,20.30
2019-04-21T15:25:16.190Z,20.00
2019-04-21T15:27:45.141Z,20.10
2019-04-21T15:30:16.508Z,19.80
2019-04-21T15:32:46.393Z,19.90
2019-04-21T15:35:15.336Z,21.10
2019-04-21T15:37:44.126Z,21.20
2019-04-21T15:40:21.710Z,22.30
2019-04-21T15:42:44.205Z,22.60
2019-04-21T15:45:14.639Z,22.40
2019-04-21T15:47:44.116Z,21.50
2019-04-21T15:50:17.616Z,21.40
2019-04-21T15:52:45.539Z,22.20
2019-04-21T15:55:32.803Z,23.00
2019-04-21T15:58:12.330Z,23.40
2019-04-21T16:00:45.162Z,23.80
2019-04-21T16:03:13.601Z,23.60
2019-04-21T16:05:42.679Z,24.00
2019-04-21T16:08:12.243Z,24.60
2019-04-21T16:10:48.051Z,25.20
2019-04-21T16:13:11.828Z,25.30
2019-04-21T16:15:40.936Z,24.90
2019-04-21T16:18:10.057Z,26.30
2019-04-21T16:20:39.874Z,25.90
2019-04-21T16:23:08.781Z,26.20
2019-04-21T16:25:38.911Z,25.80
2019-04-21T16:28:08.841Z,25.90
2019-04-21T16:30:40.235Z,26.20
2019-04-21T16:33:10.206Z,26.40
2019-04-21T16:35:39.949Z,26.90
2019-04-21T16:38:08.505Z,27.10
2019-04-21T16:40:48.174Z,28.10
2019-04-21T16:43:09.972Z,28.50
2019-04-21T16:45:39.223Z,28.80
2019-04-21T16:48:07.791Z,29.20
2019-04-21T16:50:37.375Z,30.30
2019-04-21T16:53:20.070Z,30.10
2019-04-21T16:56:08.966Z,30.80
2019-04-21T16:58:39.154Z,31.70
2019-04-21T17:03:42.590Z,33.10
2019-04-21T17:06:11.279Z,33.30
2019-04-21T17:08:40.912Z,33.60
2019-04-21T17:11:17.356Z,33.60
2019-04-21T17:13:39.950Z,33.70
2019-04-21T17:16:21.017Z,32.30
2019-04-21T17:16:36.466Z,33.90
2019-04-21T17:18:53.693Z,34.20
2019-04-21T17:21:11.177Z,34.80
2019-04-21T17:23:41.795Z,34.90
2019-04-21T17:26:11.025Z,35.10
2019-04-21T17:28:40.626Z,34.90
2019-04-21T17:31:10.718Z,35.60
2019-04-21T17:33:39.453Z,35.20
2019-04-21T17:36:09.234Z,35.50
2019-04-21T17:38:37.849Z,35.90
2019-04-21T17:41:15.631Z,36.20
2019-04-21T17:43:37.438Z,36.40
2019-04-21T17:46:06.891Z,36.30
2019-04-21T17:48:34.855Z,36.80
2019-04-21T17:51:07.488Z,36.70
2019-04-21T17:53:43.823Z,37.00
2019-04-21T17:56:31.469Z,37.40
2019-04-21T17:58:58.521Z,37.40
2019-04-21T18:01:35.579Z,37.80
2019-04-21T18:04:03.615Z,38.10
2019-04-21T18:06:36.310Z,38.30
2019-04-21T18:09:20.385Z,38.50
2019-04-21T18:11:42.928Z,38.80
2019-04-21T18:13:51.424Z,39.00
2019-04-21T18:16:29.075Z,39.40
2019-04-21T18:18:50.761Z,39.50
2019-04-21T18:21:34.586Z,40.10
2019-04-21T18:24:12.715Z,40.70
2019-04-21T18:26:46.794Z,40.90
2019-04-21T18:29:09.564Z,41.60
2019-04-21T18:31:44.872Z,42.20
2019-04-21T18:34:14.775Z,42.20
2019-04-21T18:36:48.847Z,42.60
2019-04-21T18:39:40.644Z,43.00
2019-04-21T18:42:17.488Z,43.30
2019-04-21T18:45:34.522Z,43.70
2019-04-21T18:47:55.482Z,45.30
2019-04-21T18:50:39.045Z,44.70
2019-04-21T18:53:14.440Z,45.10
2019-04-21T18:55:41.483Z,45.80
2019-04-21T18:58:07.325Z,45.90
2019-04-21T19:00:38.771Z,45.90
2019-04-21T19:03:09.950Z,46.00
2019-04-21T19:05:47.849Z,46.70
2019-04-21T19:08:27.890Z,49.50
2019-04-21T19:11:04.038Z,48.60
2019-04-21T19:13:45.319Z,49.20
2019-04-21T19:16:23.938Z,49.20
2019-04-21T19:18:50.670Z,50.10
2019-04-21T19:21:02.454Z,50.20
2019-04-21T19:23:41.315Z,50.60
2019-04-21T19:26:11.315Z,51.70
2019-04-21T19:28:36.432Z,52.00
2019-04-21T19:31:05.111Z,52.80
2019-04-21T19:33:30.017Z,54.30
2019-04-21T19:35:43.558Z,54.60
2019-04-21T19:38:15.451Z,55.80
2019-04-21T19:40:56.580Z,55.70
2019-04-21T19:43:31.449Z,56.70
2019-04-21T19:45:59.446Z,56.30
2019-04-21T19:48:33.208Z,56.20
2019-04-21T19:51:01.601Z,56.70
2019-04-21T19:53:34.264Z,57.20
2019-04-21T19:55:43.437Z,56.80
2019-04-21T19:58:12.716Z,56.20
2019-04-21T20:00:42.235Z,56.20
2019-04-21T20:03:10.446Z,57.10
2019-04-21T20:05:47.648Z,58.00
2019-04-21T20:08:23.756Z,58.50
2019-04-21T20:11:00.623Z,57.60
2019-04-21T20:13:40.753Z,57.60
2019-04-21T20:16:01.447Z,58.50
2019-04-21T20:18:21.275Z,57.60
2019-04-21T20:20:41.068Z,58.60
2019-04-21T20:23:17.973Z,57.70
2019-04-21T20:25:47.406Z,57.80
2019-04-21T20:28:21.413Z,58.40
2019-04-21T20:30:58.300Z,59.60
2019-04-21T20:36:07.911Z,60.80
2019-04-21T20:38:24.453Z,61.40
2019-04-21T20:40:50.929Z,60.80
2019-04-21T20:43:30.927Z,61.90
2019-04-21T20:46:03.575Z,61.30
2019-04-21T20:48:23.759Z,61.30
2019-04-21T20:51:00.573Z,61.40
2019-04-21T20:53:31.349Z,61.60
2019-04-21T20:55:57.898Z,62.40
2019-04-21T20:58:28.442Z,62.00
2019-04-21T21:01:22.535Z,62.90
2019-04-21T21:03:34.872Z,62.80
2019-04-21T21:05:54.319Z,64.20
2019-04-21T21:08:35.491Z,65.40
2019-04-21T21:10:58.670Z,65.70
2019-04-21T21:13:36.765Z,66.00
2019-04-21T21:16:12.376Z,66.90
2019-04-21T21:21:07.905Z,67.70
2019-04-21T21:23:40.519Z,67.70
2019-04-21T21:26:14.129Z,68.90
2019-04-21T21:28:34.070Z,70.10
2019-04-21T21:31:04.159Z,69.50
2019-04-21T21:33:45.685Z,68.90
2019-04-21T21:36:06.994Z,68.60
2019-04-21T21:38:39.408Z,67.70
2019-04-21T21:40:57.054Z,68.60
2019-04-21T21:43:21.506Z,68.70
2019-04-21T21:45:53.584Z,69.30
2019-04-21T21:48:31.811Z,69.10
2019-04-21T21:50:56.654Z,69.60
2019-04-21T21:53:22.900Z,70.20
2019-04-21T21:55:48.811Z,71.20
2019-04-21T21:58:25.337Z,71.10
2019-04-21T22:00:55.402Z,72.20
2019-04-21T22:03:28.307Z,71.90
2019-04-21T22:05:58.279Z,72.20
2019-04-21T22:08:20.674Z,73.00
2019-04-21T22:10:49.573Z,73.50
2019-04-21T22:13:21.811Z,73.30
2019-04-21T22:15:56.706Z,73.40
2019-04-21T22:18:36.242Z,73.10
2019-04-21T22:21:04.955Z,72.90
2019-04-21T22:23:32.123Z,73.40
2019-04-21T22:25:49.573Z,73.40
2019-04-21T22:28:18.012Z,73.20
2019-04-21T22:30:51.121Z,73.10
2019-04-21T22:33:20.965Z,72.60
2019-04-21T22:35:54.241Z,71.80
2019-04-21T22:38:34.839Z,71.60
2019-04-21T22:41:00.267Z,71.90
2019-04-21T22:43:26.351Z,72.50
2019-04-21T22:45:49.398Z,72.10
2019-04-21T22:48:21.555Z,74.20
2019-04-21T22:50:48.583Z,74.70
2019-04-21T22:53:17.921Z,75.80
2019-04-21T22:56:15.014Z,73.70
2019-04-21T22:58:40.807Z,74.00
2019-04-21T23:01:09.130Z,71.50
2019-04-21T23:03:40.139Z,70.70
2019-04-21T23:06:16.226Z,70.20
2019-04-21T23:08:41.734Z,70.90
2019-04-21T23:11:11.978Z,71.50
2019-04-21T23:13:40.215Z,70.00
2019-04-21T23:16:09.888Z,69.90
2019-04-21T23:18:50.178Z,69.60
2019-04-21T23:21:19.519Z,69.60
2019-04-21T23:24:01.710Z,69.60
2019-04-21T23:26:28.097Z,69.10
2019-04-21T23:29:02.011Z,69.20
2019-04-21T23:31:32.505Z,69.30
2019-04-21T23:33:42.022Z,68.80
2019-04-21T23:36:15.629Z,68.60
2019-04-21T23:38:44.827Z,69.20
2019-04-21T23:41:11.438Z,69.50
2019-04-21T23:43:40.526Z,71.20
2019-04-21T23:46:19.850Z,72.20
2019-04-21T23:48:58.065Z,72.60
2019-04-21T23:51:23.299Z,72.50
2019-04-21T23:53:39.810Z,71.70
2019-04-21T23:56:08.323Z,72.70
2019-04-21T23:58:38.865Z,73.20
